Time;durP1;ratioP1;P1;durP2;ratioP2;P2;SDS_P1;SDS_P2;PMS_P1;PMS_P2;Temp;Humidity;BMP_temperature;BMP_pressure;BME280_temperature;BME280_humidity;BME280_pressure;Samples;Min_cycle;Max_cycle;Signal;HPM_P1;HPM_P2
2022/02/06 00:01:23;;;;;;;;;;;1.90;99.90;;;;;;4174161;28;19932;-53
2022/02/06 00:03:25;;;;;;;;;;;1.80;99.90;;;;;;4176192;28;19929;-53
2022/02/06 00:05:27;;;;;;;;;;;1.70;99.90;;;;;;4176656;28;19963;-53
2022/02/06 00:07:30;;;;;;;;;;;1.70;99.90;;;;;;4173244;28;20755;-53
2022/02/06 00:09:32;;;;;;;;;;;1.70;99.90;;;;;;4176751;28;19959;-53
2022/02/06 00:11:50;;;;;;;;;;;1.70;99.90;;;;;;4176221;28;19935;-54
2022/02/06 00:13:52;;;;;;;;;;;1.90;99.90;;;;;;4173882;28;19925;-53
2022/02/06 00:15:53;;;;;;;;;;;1.90;99.90;;;;;;4175313;28;19967;-53
2022/02/06 00:17:55;;;;;;;;;;;1.80;99.90;;;;;;4175897;28;20555;-54
2022/02/06 00:19:58;;;;;;;;;;;1.70;99.90;;;;;;4169717;28;20581;-53
2022/02/06 00:22:02;;;;;;;;;;;1.60;99.90;;;;;;4169524;28;20807;-53
2022/02/06 00:24:06;;;;;;;;;;;1.50;99.90;;;;;;4176589;28;19968;-54
2022/02/06 00:26:27;;;;;;;;;;;1.40;99.90;;;;;;4179145;28;19968;-52
2022/02/06 00:30:41;;;;;;;;;;;1.50;99.90;;;;;;4169042;28;19933;-53
2022/02/06 00:32:48;;;;;;;;;;;1.50;99.90;;;;;;4173176;28;20031;-53
2022/02/06 00:39:30;;;;;;;;;;;1.50;99.90;;;;;;4163523;28;20290;-54
2022/02/06 00:41:36;;;;;;;;;;;1.40;99.90;;;;;;4172001;28;19925;-54
2022/02/06 00:43:38;;;;;;;;;;;1.50;99.90;;;;;;4176142;28;19971;-53
2022/02/06 00:45:40;;;;;;;;;;;1.60;99.90;;;;;;4185915;28;19986;-54
2022/02/06 00:47:44;;;;;;;;;;;1.70;99.90;;;;;;4176100;28;19925;-53
2022/02/06 00:49:46;;;;;;;;;;;1.70;99.90;;;;;;4166904;28;20011;-53
2022/02/06 00:53:53;;;;;;;;;;;1.60;99.90;;;;;;4169456;28;19925;-53
2022/02/06 00:55:55;;;;;;;;;;;1.60;99.90;;;;;;4172998;28;19960;-53
2022/02/06 00:57:57;;;;;;;;;;;1.70;99.90;;;;;;4175880;28;20050;-53
2022/02/06 00:59:59;;;;;;;;;;;1.70;99.90;;;;;;4173069;28;19925;-53
2022/02/06 01:02:01;;;;;;;;;;;1.50;99.90;;;;;;4186784;28;19929;-54
2022/02/06 01:04:03;;;;;;;;;;;1.40;99.90;;;;;;4173708;28;19929;-53
2022/02/06 01:06:05;;;;;;;;;;;1.20;99.90;;;;;;4174537;28;19984;-53
2022/02/06 01:08:07;;;;;;;;;;;1.10;99.90;;;;;;4166029;28;19933;-54
2022/02/06 01:10:09;;;;;;;;;;;1.10;99.90;;;;;;4175543;28;20507;-53
2022/02/06 01:12:14;;;;;;;;;;;1.00;99.90;;;;;;4175502;28;19967;-54
2022/02/06 01:14:34;;;;;;;;;;;0.90;99.90;;;;;;4162981;28;19960;-53
2022/02/06 01:16:41;;;;;;;;;;;0.80;99.90;;;;;;4178239;28;19936;-53
2022/02/06 01:18:53;;;;;;;;;;;0.80;99.90;;;;;;4175790;28;19976;-54
2022/02/06 01:21:01;;;;;;;;;;;0.80;99.90;;;;;;4177964;28;20024;-54
2022/02/06 01:23:20;;;;;;;;;;;0.90;99.90;;;;;;4179190;28;19932;-52
2022/02/06 01:25:29;;;;;;;;;;;0.90;99.90;;;;;;4172313;28;19929;-53
2022/02/06 01:27:46;;;;;;;;;;;1.10;99.90;;;;;;4169126;28;20208;-54
2022/02/06 01:29:58;;;;;;;;;;;1.10;99.90;;;;;;4164034;28;20420;-57
2022/02/06 01:32:08;;;;;;;;;;;1.10;99.90;;;;;;4169395;28;19925;-54
2022/02/06 01:34:12;;;;;;;;;;;1.30;99.90;;;;;;4172059;28;19934;-54
2022/02/06 01:38:26;;;;;;;;;;;1.10;99.90;;;;;;4178080;28;19951;-53
2022/02/06 01:42:42;;;;;;;;;;;0.70;99.90;;;;;;4177565;28;19932;-53
2022/02/06 02:01:12;;;;;;;;;;;0.50;99.90;;;;;;4179350;28;20012;-52
2022/02/06 02:03:18;;;;;;;;;;;0.60;99.90;;;;;;4175646;28;19991;-52
2022/02/06 02:17:08;;;;;;;;;;;0.30;99.90;;;;;;4177634;28;19928;-52
2022/02/06 02:24:06;;;;;;;;;;;0.00;99.90;;;;;;4177503;28;19936;-52
2022/02/06 02:46:24;;;;;;;;;;;-0.30;99.90;;;;;;4175312;28;20300;-52
2022/02/06 02:48:26;;;;;;;;;;;-0.40;99.90;;;;;;4176288;28;19971;-53
2022/02/06 02:50:30;;;;;;;;;;;-0.30;99.90;;;;;;4178209;28;19998;-53
2022/02/06 02:53:04;;;;;;;;;;;-0.20;99.90;;;;;;4175703;28;20012;-52
2022/02/06 02:55:10;;;;;;;;;;;-0.10;99.90;;;;;;4174893;28;20376;-53
2022/02/06 02:57:24;;;;;;;;;;;-0.20;99.90;;;;;;4159761;28;19972;-52
2022/02/06 02:59:36;;;;;;;;;;;-0.20;99.90;;;;;;4161794;28;19925;-51
2022/02/06 03:01:56;;;;;;;;;;;-0.20;99.90;;;;;;4176106;28;20331;-51
2022/02/06 03:03:58;;;;;;;;;;;-0.30;99.90;;;;;;4174816;28;19968;-51
2022/02/06 03:06:02;;;;;;;;;;;-0.30;99.90;;;;;;4162853;28;20417;-53
2022/02/06 03:08:06;;;;;;;;;;;-0.40;99.90;;;;;;4177707;28;19924;-51
2022/02/06 03:10:09;;;;;;;;;;;-0.40;99.90;;;;;;4174167;28;19929;-52
2022/02/06 03:12:18;;;;;;;;;;;-0.40;99.90;;;;;;4178205;28;20325;-51
2022/02/06 03:14:28;;;;;;;;;;;-0.50;99.90;;;;;;4166419;28;20381;-53
2022/02/06 03:16:34;;;;;;;;;;;-0.50;99.90;;;;;;4166927;28;19971;-51
2022/02/06 03:18:44;;;;;;;;;;;-0.40;99.90;;;;;;4162050;28;19929;-50
2022/02/06 03:20:47;;;;;;;;;;;-0.40;99.90;;;;;;4176065;28;19967;-52
2022/02/06 03:22:52;;;;;;;;;;;-0.40;99.90;;;;;;4175433;28;19966;-51
2022/02/06 03:24:59;;;;;;;;;;;-0.40;99.90;;;;;;4174396;28;20396;-52
2022/02/06 03:27:01;;;;;;;;;;;-0.30;99.90;;;;;;4176751;28;19933;-52
2022/02/06 03:29:03;;;;;;;;;;;-0.40;99.90;;;;;;4175432;28;19932;-52
2022/02/06 03:31:06;;;;;;;;;;;-0.40;99.90;;;;;;4177019;28;19925;-53
2022/02/06 03:33:08;;;;;;;;;;;-0.40;99.90;;;;;;4174017;28;20016;-52
2022/02/06 03:35:11;;;;;;;;;;;-0.50;99.90;;;;;;4176234;28;20023;-52
2022/02/06 03:37:13;;;;;;;;;;;-0.40;99.90;;;;;;4177167;28;19975;-52
2022/02/06 03:39:22;;;;;;;;;;;-0.50;99.90;;;;;;4176411;28;19955;-53
2022/02/06 03:41:26;;;;;;;;;;;-0.50;99.90;;;;;;4173743;28;20300;-52
2022/02/06 03:47:54;;;;;;;;;;;-0.60;99.90;;;;;;4175515;28;19931;-51
2022/02/06 03:50:05;;;;;;;;;;;-0.50;99.90;;;;;;4175675;28;19960;-52
2022/02/06 03:52:07;;;;;;;;;;;-0.60;99.90;;;;;;4176804;28;20452;-52
2022/02/06 03:54:11;;;;;;;;;;;-0.60;99.90;;;;;;4175037;28;19932;-52
2022/02/06 03:56:13;;;;;;;;;;;-0.60;99.90;;;;;;4174559;28;19936;-53
2022/02/06 03:58:15;;;;;;;;;;;-0.50;99.90;;;;;;4177196;28;20015;-53
2022/02/06 04:00:18;;;;;;;;;;;-0.50;99.90;;;;;;4168633;28;20039;-52
2022/02/06 04:02:20;;;;;;;;;;;-0.50;99.90;;;;;;4172265;28;19967;-51
2022/02/06 04:04:22;;;;;;;;;;;-0.60;99.90;;;;;;4166172;28;19960;-50
2022/02/06 04:06:27;;;;;;;;;;;-0.60;99.90;;;;;;4175158;28;19940;-52
2022/02/06 04:08:30;;;;;;;;;;;-0.70;99.90;;;;;;4173931;28;19932;-52
2022/02/06 04:10:40;;;;;;;;;;;-0.80;99.90;;;;;;4177116;28;19925;-52
2022/02/06 04:12:45;;;;;;;;;;;-0.90;99.90;;;;;;4174843;28;19974;-53
2022/02/06 04:17:07;;;;;;;;;;;-0.90;99.90;;;;;;4177043;28;19978;-51
2022/02/06 04:19:21;;;;;;;;;;;-0.70;99.90;;;;;;4174136;28;19929;-53
2022/02/06 04:21:23;;;;;;;;;;;-0.70;99.90;;;;;;4173841;28;19979;-52
2022/02/06 04:23:25;;;;;;;;;;;-0.70;99.90;;;;;;4175971;28;19928;-51
2022/02/06 04:25:26;;;;;;;;;;;-0.80;99.90;;;;;;4175326;28;19968;-52
2022/02/06 04:27:30;;;;;;;;;;;-0.80;99.90;;;;;;4173534;28;20019;-52
2022/02/06 04:29:32;;;;;;;;;;;-0.80;99.90;;;;;;4163901;28;20015;-53
2022/02/06 04:31:37;;;;;;;;;;;-0.80;99.90;;;;;;4175172;28;19929;-52
2022/02/06 04:33:39;;;;;;;;;;;-0.60;99.90;;;;;;4175049;28;20023;-52
2022/02/06 04:35:41;;;;;;;;;;;-0.60;99.90;;;;;;4160943;28;19999;-52
2022/02/06 04:37:59;;;;;;;;;;;-0.70;99.90;;;;;;4174267;28;19932;-52
2022/02/06 04:40:11;;;;;;;;;;;-0.70;99.90;;;;;;4175895;28;20408;-51
2022/02/06 04:50:07;;;;;;;;;;;-0.70;99.90;;;;;;4177365;28;19932;-53
2022/02/06 05:17:15;;;;;;;;;;;-0.70;99.90;;;;;;4179262;28;19932;-51
2022/02/06 05:24:45;;;;;;;;;;;-0.80;99.90;;;;;;4177835;28;19964;-52
2022/02/06 05:26:46;;;;;;;;;;;-0.80;99.90;;;;;;4170463;28;19925;-52
2022/02/06 05:31:17;;;;;;;;;;;-0.80;99.90;;;;;;4178733;28;19972;-52
2022/02/06 05:33:19;;;;;;;;;;;-0.80;99.90;;;;;;4177346;28;19951;-52
2022/02/06 05:35:21;;;;;;;;;;;-0.80;99.90;;;;;;4177795;28;19953;-52
2022/02/06 05:37:26;;;;;;;;;;;-0.70;99.90;;;;;;4179204;28;20011;-52
2022/02/06 05:39:28;;;;;;;;;;;-0.70;99.90;;;;;;4176371;28;20015;-53
2022/02/06 05:41:30;;;;;;;;;;;-0.70;99.90;;;;;;4178681;28;19925;-51
2022/02/06 05:43:32;;;;;;;;;;;-0.60;99.90;;;;;;4170139;28;19982;-53
2022/02/06 05:45:34;;;;;;;;;;;-0.60;99.90;;;;;;4176150;28;19951;-53
2022/02/06 05:47:36;;;;;;;;;;;-0.60;99.90;;;;;;4178373;28;20540;-52
2022/02/06 05:49:38;;;;;;;;;;;-0.60;99.90;;;;;;4169739;28;19929;-53
2022/02/06 05:51:40;;;;;;;;;;;-0.60;99.90;;;;;;4175046;28;19928;-52
2022/02/06 05:53:42;;;;;;;;;;;-0.60;99.90;;;;;;4171065;28;19925;-52
2022/02/06 05:55:44;;;;;;;;;;;-0.70;99.90;;;;;;4178176;28;19936;-52
2022/02/06 05:57:46;;;;;;;;;;;-0.80;99.90;;;;;;4176591;28;19925;-52
2022/02/06 05:59:49;;;;;;;;;;;-0.80;99.90;;;;;;4178346;28;19935;-52
2022/02/06 06:01:51;;;;;;;;;;;-0.80;99.90;;;;;;4177869;28;19925;-52
2022/02/06 06:03:53;;;;;;;;;;;-0.70;99.90;;;;;;4170539;28;20418;-52
2022/02/06 06:05:55;;;;;;;;;;;-0.80;99.90;;;;;;4178582;28;19924;-52
2022/02/06 06:07:57;;;;;;;;;;;-0.80;99.90;;;;;;4167283;28;19925;-52
2022/02/06 06:10:00;;;;;;;;;;;-0.80;99.90;;;;;;4172129;28;20484;-52
2022/02/06 06:12:02;;;;;;;;;;;-0.90;99.90;;;;;;4172645;28;20027;-53
2022/02/06 06:14:04;;;;;;;;;;;-0.90;99.90;;;;;;4177391;28;19936;-53
2022/02/06 06:16:08;;;;;;;;;;;-0.90;99.90;;;;;;4155720;28;19975;-52
2022/02/06 06:18:12;;;;;;;;;;;-0.90;99.90;;;;;;4176314;28;19976;-53
2022/02/06 06:20:18;;;;;;;;;;;-0.90;99.90;;;;;;4167727;28;20356;-51
2022/02/06 06:22:21;;;;;;;;;;;-0.80;99.90;;;;;;4170638;28;20328;-53
2022/02/06 06:24:24;;;;;;;;;;;-0.70;99.90;;;;;;4176897;28;19925;-53
2022/02/06 06:26:27;;;;;;;;;;;-0.90;99.90;;;;;;4174485;28;20016;-53
2022/02/06 06:28:29;;;;;;;;;;;-0.90;99.90;;;;;;4176593;28;20055;-52
2022/02/06 06:30:31;;;;;;;;;;;-0.90;99.90;;;;;;4179392;28;20182;-52
2022/02/06 06:32:33;;;;;;;;;;;-1.00;99.90;;;;;;4176981;28;19963;-52
2022/02/06 06:34:35;;;;;;;;;;;-0.90;99.90;;;;;;4159509;28;19925;-52
2022/02/06 06:36:37;;;;;;;;;;;-0.90;99.90;;;;;;4167153;28;19979;-52
2022/02/06 06:38:39;;;;;;;;;;;-0.90;99.90;;;;;;4169401;28;20304;-53
2022/02/06 06:40:41;;;;;;;;;;;-0.90;99.90;;;;;;4173779;28;20589;-51
2022/02/06 06:42:44;;;;;;;;;;;-0.90;99.90;;;;;;4173317;28;19929;-56
2022/02/06 06:44:46;;;;;;;;;;;-0.80;99.90;;;;;;4174402;28;20015;-54
2022/02/06 06:46:47;;;;;;;;;;;-0.80;99.90;;;;;;4176383;28;19929;-55
2022/02/06 06:48:49;;;;;;;;;;;-0.80;99.90;;;;;;4163007;28;19972;-56
2022/02/06 06:50:51;;;;;;;;;;;-0.80;99.90;;;;;;4170841;28;19929;-55
2022/02/06 06:52:53;;;;;;;;;;;-0.90;99.90;;;;;;4176934;28;19939;-56
2022/02/06 06:55:01;;;;;;;;;;;-0.90;99.90;;;;;;4163373;28;20399;-55
2022/02/06 06:57:29;;;;;;;;;;;-0.90;99.90;;;;;;4177950;28;19925;-55
2022/02/06 06:59:44;;;;;;;;;;;-1.00;99.90;;;;;;4182258;28;19978;-55
2022/02/06 07:01:50;;;;;;;;;;;-0.90;99.90;;;;;;4177320;28;19972;-55
2022/02/06 07:03:52;;;;;;;;;;;-0.80;99.90;;;;;;4176044;28;19971;-55
2022/02/06 07:05:54;;;;;;;;;;;-0.80;99.90;;;;;;4176723;28;19932;-56
2022/02/06 07:07:56;;;;;;;;;;;-0.80;99.90;;;;;;4178312;28;19933;-55
2022/02/06 07:10:00;;;;;;;;;;;-0.80;99.90;;;;;;4177035;28;19960;-55
2022/02/06 07:12:02;;;;;;;;;;;-0.80;99.90;;;;;;4175532;28;20365;-56
2022/02/06 07:14:04;;;;;;;;;;;-0.80;99.90;;;;;;4163816;28;20286;-54
2022/02/06 07:16:06;;;;;;;;;;;-0.90;99.90;;;;;;4176607;28;20341;-56
2022/02/06 07:18:08;;;;;;;;;;;-0.80;99.90;;;;;;4174094;28;19929;-55
2022/02/06 07:20:10;;;;;;;;;;;-0.80;99.90;;;;;;4147395;28;19972;-56
2022/02/06 07:22:15;;;;;;;;;;;-0.80;99.90;;;;;;4175609;28;19928;-56
2022/02/06 07:24:18;;;;;;;;;;;-0.80;99.90;;;;;;4175737;28;20476;-54
2022/02/06 07:26:21;;;;;;;;;;;-0.70;99.90;;;;;;4178389;28;19951;-56
2022/02/06 07:28:23;;;;;;;;;;;-0.70;99.90;;;;;;4170532;28;19928;-54
2022/02/06 07:30:26;;;;;;;;;;;-0.70;99.90;;;;;;4176534;28;20312;-55
2022/02/06 07:32:28;;;;;;;;;;;-0.70;99.90;;;;;;4178247;28;19982;-55
2022/02/06 07:34:30;;;;;;;;;;;-0.60;99.90;;;;;;4176412;28;19928;-55
2022/02/06 07:36:32;;;;;;;;;;;-0.60;99.90;;;;;;4176249;28;20356;-57
2022/02/06 07:38:34;;;;;;;;;;;-0.50;99.90;;;;;;4176819;28;19928;-56
2022/02/06 07:40:35;;;;;;;;;;;-0.40;99.90;;;;;;4158284;28;19964;-56
2022/02/06 07:42:38;;;;;;;;;;;-0.40;99.90;;;;;;4176051;28;20019;-57
2022/02/06 07:44:42;;;;;;;;;;;-0.50;99.90;;;;;;4178243;28;20015;-56
2022/02/06 07:46:47;;;;;;;;;;;-0.40;99.90;;;;;;4176153;28;19986;-57
2022/02/06 07:48:48;;;;;;;;;;;-0.30;99.90;;;;;;4175317;28;19932;-56
2022/02/06 07:50:50;;;;;;;;;;;-0.30;99.90;;;;;;4178102;28;19971;-55
2022/02/06 07:52:52;;;;;;;;;;;-0.30;99.90;;;;;;4168339;28;19933;-56
2022/02/06 07:54:54;;;;;;;;;;;-0.30;99.90;;;;;;4169865;28;19932;-56
2022/02/06 07:56:56;;;;;;;;;;;-0.30;99.90;;;;;;4177536;28;20004;-57
2022/02/06 07:58:58;;;;;;;;;;;-0.30;99.90;;;;;;4175997;28;19928;-56
2022/02/06 08:01:01;;;;;;;;;;;-0.10;99.90;;;;;;4183206;28;19971;-57
2022/02/06 08:03:02;;;;;;;;;;;0.00;99.90;;;;;;4176962;28;20419;-56
2022/02/06 08:05:04;;;;;;;;;;;0.10;99.90;;;;;;4175878;28;19924;-57
2022/02/06 08:07:09;;;;;;;;;;;0.10;99.90;;;;;;4178064;28;20010;-56
2022/02/06 08:09:12;;;;;;;;;;;0.20;99.90;;;;;;4163542;28;20702;-57
2022/02/06 08:11:15;;;;;;;;;;;0.10;99.90;;;;;;4170206;28;19971;-57
2022/02/06 08:13:25;;;;;;;;;;;0.10;99.90;;;;;;4164398;28;19960;-57
2022/02/06 08:15:27;;;;;;;;;;;0.20;99.90;;;;;;4176529;28;19929;-56
2022/02/06 08:17:33;;;;;;;;;;;0.30;99.90;;;;;;4181595;28;19974;-56
2022/02/06 08:19:35;;;;;;;;;;;0.40;99.90;;;;;;4170586;28;19987;-56
2022/02/06 08:21:37;;;;;;;;;;;0.30;99.90;;;;;;4176772;28;20020;-57
2022/02/06 08:23:39;;;;;;;;;;;0.30;99.90;;;;;;4172831;28;20012;-57
2022/02/06 08:25:41;;;;;;;;;;;0.40;99.90;;;;;;4177094;28;19929;-57
2022/02/06 08:27:44;;;;;;;;;;;0.50;99.90;;;;;;4164848;28;19960;-56
2022/02/06 08:29:46;;;;;;;;;;;0.60;99.90;;;;;;4166919;28;19925;-56
2022/02/06 08:31:48;;;;;;;;;;;0.70;99.90;;;;;;4163082;28;19925;-56
2022/02/06 08:33:50;;;;;;;;;;;0.70;99.90;;;;;;4176727;28;19956;-56
2022/02/06 08:35:52;;;;;;;;;;;0.80;99.90;;;;;;4173855;28;19925;-56
2022/02/06 08:37:54;;;;;;;;;;;0.90;99.90;;;;;;4161549;28;19925;-57
2022/02/06 08:39:57;;;;;;;;;;;1.00;99.90;;;;;;4176044;28;19947;-56
2022/02/06 08:41:59;;;;;;;;;;;1.00;99.90;;;;;;4175275;28;20304;-57
2022/02/06 08:44:02;;;;;;;;;;;1.10;99.90;;;;;;4175959;28;19956;-55
2022/02/06 08:46:04;;;;;;;;;;;1.30;99.90;;;;;;4166664;28;20332;-56
2022/02/06 08:48:06;;;;;;;;;;;1.40;99.90;;;;;;4168117;28;20407;-56
2022/02/06 08:50:09;;;;;;;;;;;1.40;99.90;;;;;;4177628;28;20278;-57
2022/02/06 08:52:11;;;;;;;;;;;1.40;99.90;;;;;;4175306;28;20007;-56
2022/02/06 08:54:13;;;;;;;;;;;1.40;99.90;;;;;;4175335;28;19929;-56
2022/02/06 08:56:38;;;;;;;;;;;1.40;99.90;;;;;;4177191;28;20567;-57
2022/02/06 08:58:40;;;;;;;;;;;1.40;99.90;;;;;;4174763;28;19977;-55
2022/02/06 09:00:42;;;;;;;;;;;1.50;99.90;;;;;;4162035;28;20012;-56
2022/02/06 09:02:44;;;;;;;;;;;1.60;99.90;;;;;;4175767;28;19970;-55
2022/02/06 09:04:46;;;;;;;;;;;1.80;99.90;;;;;;4173359;28;20312;-56
2022/02/06 09:06:48;;;;;;;;;;;1.80;99.90;;;;;;4175229;28;20413;-56
2022/02/06 09:08:54;;;;;;;;;;;2.00;99.90;;;;;;4177072;28;19924;-56
2022/02/06 09:10:56;;;;;;;;;;;2.00;99.90;;;;;;4174297;28;19932;-56
2022/02/06 09:12:58;;;;;;;;;;;1.90;99.90;;;;;;4167537;28;20019;-56
2022/02/06 09:15:00;;;;;;;;;;;1.90;99.90;;;;;;4176224;28;20007;-56
2022/02/06 09:17:02;;;;;;;;;;;1.90;99.90;;;;;;4170275;28;19925;-56
2022/02/06 09:19:06;;;;;;;;;;;2.00;99.90;;;;;;4172381;28;19971;-57
2022/02/06 09:21:08;;;;;;;;;;;2.10;99.90;;;;;;4175691;28;20349;-55
2022/02/06 09:23:10;;;;;;;;;;;2.20;99.90;;;;;;4173129;28;20472;-56
2022/02/06 09:25:13;;;;;;;;;;;2.40;99.90;;;;;;4175083;28;19931;-55
2022/02/06 09:27:15;;;;;;;;;;;2.40;99.90;;;;;;4174892;28;20011;-55
2022/02/06 09:29:17;;;;;;;;;;;2.60;99.90;;;;;;4173764;28;19965;-56
2022/02/06 09:31:24;;;;;;;;;;;2.70;99.90;;;;;;4177034;28;20032;-55
2022/02/06 09:35:29;;;;;;;;;;;3.30;99.90;;;;;;4176307;28;20399;-56
2022/02/06 09:37:31;;;;;;;;;;;3.50;99.90;;;;;;4176859;28;19925;-56
2022/02/06 09:39:38;;;;;;;;;;;3.50;99.90;;;;;;4178562;28;19932;-56
2022/02/06 09:41:44;;;;;;;;;;;3.50;99.90;;;;;;4178189;28;19932;-56
2022/02/06 09:43:46;;;;;;;;;;;3.60;99.90;;;;;;4178186;28;19935;-56
2022/02/06 09:45:49;;;;;;;;;;;3.70;99.90;;;;;;4183119;28;19931;-56
2022/02/06 09:47:52;;;;;;;;;;;3.80;99.90;;;;;;4179384;28;19924;-56
2022/02/06 09:49:54;;;;;;;;;;;3.90;99.90;;;;;;4176519;28;19931;-56
2022/02/06 09:51:56;;;;;;;;;;;3.90;99.90;;;;;;4178169;28;20395;-57
2022/02/06 09:53:59;;;;;;;;;;;4.00;99.90;;;;;;4177649;28;19971;-56
2022/02/06 09:56:02;;;;;;;;;;;4.10;99.90;;;;;;4178964;28;19932;-56
2022/02/06 10:00:22;;;;;;;;;;;4.70;99.90;;;;;;4176352;28;19932;-57
2022/02/06 10:02:26;;;;;;;;;;;5.10;99.90;;;;;;4169282;28;19936;-57
2022/02/06 10:04:29;;;;;;;;;;;5.10;99.90;;;;;;4170464;28;19968;-57
2022/02/06 10:06:33;;;;;;;;;;;5.00;99.90;;;;;;4151102;28;20400;-56
2022/02/06 10:08:38;;;;;;;;;;;5.10;99.90;;;;;;4171317;28;20301;-56
2022/02/06 10:10:46;;;;;;;;;;;5.30;99.90;;;;;;4170270;28;20396;-56
2022/02/06 10:12:49;;;;;;;;;;;5.60;99.90;;;;;;4171461;28;20577;-57
2022/02/06 10:14:52;;;;;;;;;;;5.80;99.90;;;;;;4169876;28;19929;-57
2022/02/06 10:16:54;;;;;;;;;;;6.00;99.90;;;;;;4173209;28;20024;-56
2022/02/06 10:18:56;;;;;;;;;;;6.10;99.90;;;;;;4172534;28;19924;-57
2022/02/06 10:20:58;;;;;;;;;;;6.30;99.90;;;;;;4149430;28;20024;-57
2022/02/06 10:23:06;;;;;;;;;;;6.30;99.90;;;;;;4169969;28;20023;-57
2022/02/06 10:25:11;;;;;;;;;;;6.40;99.90;;;;;;4182680;28;19979;-57
2022/02/06 10:27:20;;;;;;;;;;;6.40;99.90;;;;;;4171778;28;19939;-56
2022/02/06 10:29:29;;;;;;;;;;;6.60;99.90;;;;;;4175947;28;20559;-57
2022/02/06 10:31:31;;;;;;;;;;;6.80;99.90;;;;;;4178855;28;20020;-56
2022/02/06 10:33:50;;;;;;;;;;;6.90;99.90;;;;;;4167816;28;20352;-56
2022/02/06 10:35:53;;;;;;;;;;;7.10;99.90;;;;;;4177281;28;19971;-57
2022/02/06 10:37:55;;;;;;;;;;;7.40;99.90;;;;;;4178566;28;19948;-57
2022/02/06 10:40:06;;;;;;;;;;;7.70;99.90;;;;;;4166836;28;19928;-56
2022/02/06 10:42:20;;;;;;;;;;;8.00;99.90;;;;;;4172512;28;20012;-57
2022/02/06 10:44:28;;;;;;;;;;;8.20;99.90;;;;;;4170384;28;20051;-56
2022/02/06 10:46:31;;;;;;;;;;;8.30;99.90;;;;;;4176003;28;19986;-56
2022/02/06 10:48:33;;;;;;;;;;;8.50;99.90;;;;;;4174223;28;19929;-57
2022/02/06 10:50:36;;;;;;;;;;;8.60;99.90;;;;;;4175312;28;20007;-57
2022/02/06 10:52:39;;;;;;;;;;;8.70;99.90;;;;;;4175670;28;19972;-57
2022/02/06 10:54:41;;;;;;;;;;;9.00;99.90;;;;;;4169747;28;20235;-56
2022/02/06 10:57:02;;;;;;;;;;;8.90;99.90;;;;;;4170384;28;19932;-57
2022/02/06 10:59:06;;;;;;;;;;;9.30;99.90;;;;;;4174327;28;19935;-57
2022/02/06 11:01:20;;;;;;;;;;;9.70;99.90;;;;;;4173485;28;20002;-56
2022/02/06 11:03:37;;;;;;;;;;;10.30;99.90;;;;;;4174478;28;19924;-55
2022/02/06 11:05:48;;;;;;;;;;;10.50;99.90;;;;;;4178082;28;20047;-54
2022/02/06 11:07:54;;;;;;;;;;;10.60;99.90;;;;;;4175264;28;20432;-54
2022/02/06 11:10:07;;;;;;;;;;;10.60;99.90;;;;;;4173335;28;20867;-55
2022/02/06 11:12:13;;;;;;;;;;;10.60;99.90;;;;;;4177445;28;19983;-54
2022/02/06 11:14:15;;;;;;;;;;;10.70;99.90;;;;;;4177138;28;19972;-55
2022/02/06 11:16:18;;;;;;;;;;;10.60;99.90;;;;;;4174354;28;19983;-55
2022/02/06 11:18:23;;;;;;;;;;;10.60;99.90;;;;;;4173779;28;19928;-53
2022/02/06 11:20:26;;;;;;;;;;;10.70;99.90;;;;;;4175577;28;19966;-54
2022/02/06 11:22:28;;;;;;;;;;;10.90;99.90;;;;;;4171465;28;19925;-54
2022/02/06 11:24:35;;;;;;;;;;;11.10;99.90;;;;;;4170636;28;20448;-54
2022/02/06 11:26:37;;;;;;;;;;;10.90;99.90;;;;;;4169781;28;19972;-54
2022/02/06 11:28:40;;;;;;;;;;;10.80;99.90;;;;;;4175489;28;19933;-54
2022/02/06 11:30:43;;;;;;;;;;;11.20;99.90;;;;;;4186365;28;20361;-54
2022/02/06 11:32:45;;;;;;;;;;;11.70;99.90;;;;;;4174096;28;19925;-54
2022/02/06 11:34:47;;;;;;;;;;;11.70;99.90;;;;;;4174851;28;19963;-55
2022/02/06 11:44:20;;;;;;;;;;;12.80;99.90;;;;;;4175237;28;20284;-54
2022/02/06 11:46:27;;;;;;;;;;;12.70;99.90;;;;;;4177003;28;20068;-53
2022/02/06 11:48:31;;;;;;;;;;;12.30;99.90;;;;;;4173589;28;20011;-55
2022/02/06 11:50:33;;;;;;;;;;;12.50;99.90;;;;;;4169096;28;20379;-55
2022/02/06 11:52:58;;;;;;;;;;;12.80;99.90;;;;;;4172816;28;20494;-55
2022/02/06 11:55:00;;;;;;;;;;;12.60;99.90;;;;;;4158815;28;20270;-55
2022/02/06 11:57:27;;;;;;;;;;;12.80;99.90;;;;;;4167688;28;19929;-55
2022/02/06 11:59:29;;;;;;;;;;;12.40;99.90;;;;;;4175524;28;19932;-54
2022/02/06 12:01:31;;;;;;;;;;;12.80;99.90;;;;;;4177656;28;19951;-54
2022/02/06 12:03:53;;;;;;;;;;;13.00;99.90;;;;;;4173943;28;20372;-55
2022/02/06 12:05:58;;;;;;;;;;;12.80;99.90;;;;;;4177280;28;19963;-54
2022/02/06 12:08:00;;;;;;;;;;;13.10;99.90;;;;;;4162425;28;19971;-54
2022/02/06 12:10:03;;;;;;;;;;;13.10;99.90;;;;;;4173957;28;20524;-55
2022/02/06 12:12:08;;;;;;;;;;;12.70;99.90;;;;;;4175796;28;20445;-54
2022/02/06 12:14:12;;;;;;;;;;;12.80;99.90;;;;;;4176456;28;20015;-55
2022/02/06 12:16:25;;;;;;;;;;;12.50;99.90;;;;;;4170374;28;20647;-54
2022/02/06 12:18:26;;;;;;;;;;;12.20;99.90;;;;;;4164667;28;19995;-55
2022/02/06 12:20:42;;;;;;;;;;;12.10;99.90;;;;;;4176832;28;20380;-54
2022/02/06 12:22:46;;;;;;;;;;;12.40;99.90;;;;;;4174676;28;20015;-55
2022/02/06 12:24:48;;;;;;;;;;;12.70;99.90;;;;;;4175454;28;19928;-54
2022/02/06 12:26:51;;;;;;;;;;;12.90;99.90;;;;;;4177833;28;19932;-54
2022/02/06 12:28:54;;;;;;;;;;;12.40;99.90;;;;;;4175414;28;19928;-54
2022/02/06 12:31:15;;;;;;;;;;;12.60;99.90;;;;;;4175574;28;19929;-55
2022/02/06 12:33:24;;;;;;;;;;;12.40;99.90;;;;;;4177719;28;20333;-54
2022/02/06 12:37:37;;;;;;;;;;;12.20;99.90;;;;;;4175630;28;20365;-54
2022/02/06 12:39:39;;;;;;;;;;;12.20;99.90;;;;;;4175735;28;19933;-55
2022/02/06 12:41:44;;;;;;;;;;;12.00;99.90;;;;;;4149028;28;20024;-55
2022/02/06 12:43:53;;;;;;;;;;;12.00;99.90;;;;;;4169153;28;19995;-54
2022/02/06 12:45:56;;;;;;;;;;;11.80;99.90;;;;;;4158031;28;20736;-53
2022/02/06 12:47:59;;;;;;;;;;;11.80;99.90;;;;;;4175232;28;19924;-54
2022/02/06 12:50:11;;;;;;;;;;;11.90;99.90;;;;;;4171370;28;19925;-53
2022/02/06 12:52:13;;;;;;;;;;;12.20;99.90;;;;;;4163531;28;19929;-54
2022/02/06 12:54:15;;;;;;;;;;;12.30;99.90;;;;;;4177220;28;19984;-54
2022/02/06 12:56:27;;;;;;;;;;;12.00;99.90;;;;;;4172179;28;20333;-54
2022/02/06 12:58:29;;;;;;;;;;;12.20;99.90;;;;;;4174080;28;20368;-54
2022/02/06 13:00:32;;;;;;;;;;;12.10;99.90;;;;;;4177119;28;19965;-54
2022/02/06 13:02:35;;;;;;;;;;;12.00;99.90;;;;;;4174090;28;19932;-55
2022/02/06 13:04:42;;;;;;;;;;;12.00;99.90;;;;;;4175605;28;19928;-54
2022/02/06 13:06:45;;;;;;;;;;;11.90;99.90;;;;;;4167915;28;19935;-53
2022/02/06 13:08:47;;;;;;;;;;;12.00;99.90;;;;;;4176915;28;19979;-53
2022/02/06 13:10:54;;;;;;;;;;;12.00;99.90;;;;;;4178706;28;19964;-54
2022/02/06 13:13:06;;;;;;;;;;;12.00;99.90;;;;;;4180083;28;20383;-54
2022/02/06 13:15:36;;;;;;;;;;;12.00;99.90;;;;;;4178427;28;19983;-53
2022/02/06 13:24:49;;;;;;;;;;;12.00;99.90;;;;;;4117685;28;19972;-54
2022/02/06 13:27:57;;;;;;;;;;;12.00;99.90;;;;;;4103280;28;19926;-53
2022/02/06 13:29:36;;;;;;;;;;;11.90;99.90;;;;;;4116859;28;19968;-54
2022/02/06 13:34:17;;;;;;;;;;;11.70;99.90;;;;;;4117733;28;19930;-54
2022/02/06 13:38:29;;;;;;;;;;;11.90;99.90;;;;;;4115334;28;20028;-54
2022/02/06 13:40:33;;;;;;;;;;;11.90;99.90;;;;;;4127408;28;19926;-55
2022/02/06 13:42:35;;;;;;;;;;;11.90;99.90;;;;;;4123905;28;19930;-53
2022/02/06 13:44:37;;;;;;;;;;;11.80;99.90;;;;;;4127907;28;20002;-54
2022/02/06 13:46:41;;;;;;;;;;;11.80;99.90;;;;;;4117289;28;19930;-53
2022/02/06 13:48:47;;;;;;;;;;;11.90;99.90;;;;;;4118376;28;19989;-54
2022/02/06 13:51:00;;;;;;;;;;;11.90;99.90;;;;;;4127656;28;19936;-54
2022/02/06 13:53:09;;;;;;;;;;;11.80;99.90;;;;;;4178770;28;20460;-54
2022/02/06 13:55:13;;;;;;;;;;;11.70;99.90;;;;;;4177815;28;20419;-54
2022/02/06 13:57:15;;;;;;;;;;;11.60;99.90;;;;;;4177939;28;20005;-54
2022/02/06 13:59:22;;;;;;;;;;;11.70;99.90;;;;;;4179412;28;19971;-54
2022/02/06 14:01:35;;;;;;;;;;;11.90;99.90;;;;;;4177528;28;19940;-54
2022/02/06 14:03:40;;;;;;;;;;;12.20;99.90;;;;;;4179122;28;19933;-54
2022/02/06 14:05:47;;;;;;;;;;;12.30;99.90;;;;;;4164703;28;19925;-53
2022/02/06 14:08:06;;;;;;;;;;;12.10;99.90;;;;;;4173972;28;19967;-53
2022/02/06 14:10:11;;;;;;;;;;;11.90;99.90;;;;;;4176973;28;19932;-54
2022/02/06 14:12:16;;;;;;;;;;;11.90;99.90;;;;;;4179814;28;20341;-53
2022/02/06 14:14:22;;;;;;;;;;;11.80;99.90;;;;;;4168969;28;19925;-53
2022/02/06 14:16:24;;;;;;;;;;;11.70;99.90;;;;;;4168853;28;20367;-53
2022/02/06 14:18:26;;;;;;;;;;;11.60;99.90;;;;;;4178798;28;19964;-52
2022/02/06 14:20:28;;;;;;;;;;;11.60;99.90;;;;;;4176238;28;20315;-53
2022/02/06 14:22:32;;;;;;;;;;;11.50;99.90;;;;;;4175387;28;19933;-54
2022/02/06 14:24:54;;;;;;;;;;;11.50;99.90;;;;;;4174374;28;19929;-54
2022/02/06 14:27:00;;;;;;;;;;;11.50;99.90;;;;;;4174609;28;19960;-53
2022/02/06 14:29:02;;;;;;;;;;;11.60;99.90;;;;;;4167504;28;20341;-54
2022/02/06 14:31:20;;;;;;;;;;;11.60;99.90;;;;;;4176179;28;19940;-54